createdAt,value
2022-09-01T00:00:34.977Z,16.15
2022-09-01T00:05:39.255Z,16.01
2022-09-01T00:10:42.001Z,15.93
2022-09-01T00:15:45.073Z,15.82
2022-09-01T00:20:49.244Z,15.73
2022-09-01T00:25:51.978Z,15.59
2022-09-01T00:30:54.783Z,15.50
2022-09-01T00:35:59.815Z,15.38
2022-09-01T00:41:03.016Z,15.27
2022-09-01T00:46:07.609Z,15.18
2022-09-01T00:51:14.437Z,15.11
2022-09-01T00:56:17.996Z,15.08
2022-09-01T01:01:21.550Z,15.00
2022-09-01T01:06:29.745Z,15.03
2022-09-01T01:11:35.080Z,15.06
2022-09-01T01:16:40.897Z,15.00
2022-09-01T01:22:02.870Z,15.02
2022-09-01T01:27:07.018Z,14.98
2022-09-01T01:32:13.126Z,14.95
2022-09-01T01:37:15.881Z,14.86
2022-09-01T01:42:20.624Z,14.80
2022-09-01T01:47:24.111Z,14.71
2022-09-01T01:52:27.113Z,14.61
2022-09-01T01:57:32.999Z,14.49
2022-09-01T02:02:38.115Z,14.39
2022-09-01T02:07:43.746Z,14.28
2022-09-01T02:12:49.268Z,14.18
2022-09-01T02:17:53.284Z,14.07
2022-09-01T02:22:56.397Z,13.97
2022-09-01T02:28:02.957Z,13.89
2022-09-01T02:33:05.963Z,13.81
2022-09-01T02:38:08.820Z,13.75
2022-09-01T02:43:14.026Z,13.72
2022-09-01T02:48:18.589Z,13.67
2022-09-01T02:53:22.379Z,13.66
2022-09-01T02:58:26.837Z,13.60
2022-09-01T03:03:29.825Z,13.54
2022-09-01T03:08:38.751Z,13.46
2022-09-01T03:13:43.968Z,13.41
2022-09-01T03:18:47.179Z,13.36
2022-09-01T03:23:52.043Z,13.33
2022-09-01T03:28:56.634Z,13.30
2022-09-01T03:33:59.586Z,13.28
2022-09-01T03:39:14.551Z,13.28
2022-09-01T03:44:20.596Z,13.26
2022-09-01T03:49:27.702Z,13.23
2022-09-01T03:54:33.009Z,13.17
2022-09-01T03:59:37.831Z,13.11
2022-09-01T04:04:41.525Z,13.05
2022-09-01T04:09:44.499Z,12.99
2022-09-01T04:14:48.923Z,12.93
2022-09-01T04:19:51.825Z,12.88
2022-09-01T04:24:54.663Z,12.82
2022-09-01T04:29:58.899Z,12.75
2022-09-01T04:35:05.706Z,12.73
2022-09-01T04:40:09.972Z,12.72
2022-09-01T04:45:20.424Z,12.74
2022-09-01T04:50:26.127Z,12.72
2022-09-01T04:55:49.913Z,12.72
2022-09-01T05:00:56.624Z,12.71
2022-09-01T05:06:01.192Z,12.74
2022-09-01T05:11:07.702Z,12.74
2022-09-01T05:16:25.191Z,12.73
2022-09-01T05:21:30.599Z,12.75
2022-09-01T05:26:34.848Z,12.81
2022-09-01T05:31:39.839Z,12.83
2022-09-01T05:36:46.884Z,12.89
2022-09-01T05:41:49.861Z,12.97
2022-09-01T05:46:55.858Z,13.13
2022-09-01T05:51:58.967Z,13.35
2022-09-01T05:57:23.315Z,13.55
2022-09-01T06:02:29.228Z,13.79
2022-09-01T06:07:35.762Z,14.03
2022-09-01T06:12:39.421Z,14.09
2022-09-01T06:17:46.310Z,14.04
2022-09-01T06:22:50.023Z,13.93
2022-09-01T06:27:54.120Z,13.94
2022-09-01T06:32:58.394Z,13.93
2022-09-01T06:38:01.996Z,14.03
2022-09-01T06:43:16.591Z,14.19
2022-09-01T06:48:25.734Z,14.42
2022-09-01T06:53:35.630Z,14.63
2022-09-01T06:58:48.223Z,14.91
2022-09-01T07:03:55.438Z,15.36
2022-09-01T07:09:20.937Z,15.83
2022-09-01T07:20:25.241Z,16.79
2022-09-01T07:25:34.980Z,17.21
2022-09-01T07:37:17.284Z,17.85
2022-09-01T07:47:57.949Z,18.29
2022-09-01T08:26:12.037Z,20.11
2022-09-01T08:31:17.449Z,19.99
2022-09-01T08:36:23.986Z,18.93
2022-09-01T08:41:47.065Z,18.68
2022-09-01T08:46:56.280Z,18.41
2022-09-01T08:52:03.719Z,18.43
2022-09-01T08:57:11.615Z,18.61
2022-09-01T09:02:52.168Z,18.88
2022-09-01T09:08:11.834Z,19.97
2022-09-01T09:13:23.054Z,20.31
2022-09-01T09:18:39.966Z,21.14
2022-09-01T09:23:46.693Z,21.47
2022-09-01T09:28:51.213Z,22.06
2022-09-01T09:33:55.204Z,22.36
2022-09-01T09:39:07.667Z,22.70
2022-09-01T09:44:27.846Z,22.77
2022-09-01T09:49:36.582Z,22.31
2022-09-01T09:54:42.033Z,22.83
2022-09-01T10:00:04.576Z,23.17
2022-09-01T10:05:37.056Z,23.33
2022-09-01T10:10:44.122Z,23.12
2022-09-01T10:15:53.173Z,23.34
2022-09-01T10:21:01.866Z,23.54
2022-09-01T10:26:10.907Z,23.62
2022-09-01T10:31:15.961Z,23.30
2022-09-01T10:36:19.992Z,23.67
2022-09-01T10:41:48.239Z,23.87
2022-09-01T10:46:59.915Z,24.54
2022-09-01T10:52:13.063Z,24.52
2022-09-01T10:57:32.841Z,24.81
2022-09-01T11:02:46.384Z,24.88
2022-09-01T11:08:00.476Z,24.99
2022-09-01T11:13:38.572Z,25.46
2022-09-01T11:18:43.967Z,25.70
2022-09-01T11:23:48.087Z,26.10
2022-09-01T11:28:51.785Z,27.02
2022-09-01T11:34:05.381Z,26.13
2022-09-01T11:39:32.704Z,26.51
2022-09-01T11:44:44.394Z,26.82
2022-09-01T11:49:52.108Z,26.85
2022-09-01T11:54:55.325Z,27.75
2022-09-01T11:59:59.939Z,28.39
2022-09-01T12:10:51.784Z,26.40
2022-09-01T12:16:16.808Z,28.73
2022-09-01T12:21:23.997Z,29.35
2022-09-01T12:26:29.787Z,29.58
2022-09-01T12:31:32.836Z,29.56
2022-09-01T12:36:38.643Z,27.52
2022-09-01T12:41:43.893Z,26.54
2022-09-01T12:46:47.588Z,27.64
2022-09-01T12:52:06.305Z,28.70
2022-09-01T12:57:10.465Z,28.97
2022-09-01T13:02:34.637Z,29.04
2022-09-01T13:07:38.935Z,31.60
2022-09-01T13:12:42.855Z,29.89
2022-09-01T13:17:46.062Z,31.58
2022-09-01T13:22:50.467Z,31.93
2022-09-01T13:27:54.895Z,30.21
2022-09-01T13:38:24.080Z,27.25
2022-09-01T13:43:27.544Z,27.49
2022-09-01T14:07:23.636Z,26.39
2022-09-01T14:12:30.204Z,26.58
2022-09-01T14:17:33.022Z,25.25
2022-09-01T14:22:38.525Z,26.10
2022-09-01T14:27:44.579Z,26.21
2022-09-01T14:32:48.397Z,25.34
2022-09-01T14:37:51.538Z,25.37
2022-09-01T14:42:55.757Z,25.36
2022-09-01T14:48:00.712Z,25.15
2022-09-01T14:53:04.386Z,25.33
2022-09-01T14:58:08.490Z,26.05
2022-09-01T15:03:11.261Z,25.80
2022-09-01T15:08:17.603Z,25.55
2022-09-01T15:13:22.220Z,25.63
2022-09-01T15:18:25.073Z,25.50
2022-09-01T15:23:27.773Z,25.32
2022-09-01T15:28:31.858Z,25.84
2022-09-01T15:33:34.555Z,25.89
2022-09-01T15:38:41.854Z,26.65
2022-09-01T15:43:45.995Z,26.20
2022-09-01T15:48:50.415Z,27.17
2022-09-01T15:53:55.559Z,28.73
2022-09-01T15:59:01.801Z,29.01
2022-09-01T16:04:07.036Z,26.26
2022-09-01T16:09:10.713Z,27.07
2022-09-01T16:14:16.017Z,27.43
2022-09-01T16:19:31.905Z,27.23
2022-09-01T16:24:41.825Z,28.58
2022-09-01T16:29:49.450Z,27.29
2022-09-01T16:34:53.464Z,27.79
2022-09-01T16:40:05.790Z,27.11
2022-09-01T16:45:19.355Z,30.02
2022-09-01T16:50:35.513Z,28.61
2022-09-01T16:55:45.275Z,26.23
2022-09-01T17:00:59.060Z,25.80
2022-09-01T17:06:13.812Z,25.93
2022-09-01T17:11:25.789Z,25.44
2022-09-01T17:16:36.985Z,25.11
2022-09-01T17:21:45.081Z,24.36
2022-09-01T17:26:51.083Z,24.04
2022-09-01T17:32:03.713Z,23.65
2022-09-01T17:37:21.797Z,23.56
2022-09-01T17:42:33.654Z,23.30
2022-09-01T17:47:47.402Z,22.96
2022-09-01T17:52:59.818Z,22.84
2022-09-01T17:58:13.556Z,22.62
2022-09-01T18:03:46.549Z,22.34
2022-09-01T18:08:55.149Z,22.07
2022-09-01T18:14:05.339Z,21.82
2022-09-01T18:19:17.705Z,21.55
2022-09-01T18:24:23.343Z,21.36
2022-09-01T18:29:29.613Z,21.18
2022-09-01T18:34:49.813Z,20.95
2022-09-01T18:40:03.642Z,20.78
2022-09-01T18:45:14.701Z,20.60
2022-09-01T18:50:28.830Z,20.44
2022-09-01T18:55:40.639Z,20.35
2022-09-01T19:00:52.165Z,20.27
2022-09-01T19:06:12.660Z,20.19
2022-09-01T19:11:26.125Z,20.12
2022-09-01T19:16:42.798Z,19.96
2022-09-01T19:21:50.309Z,19.84
2022-09-01T19:26:59.489Z,19.73
2022-09-01T19:32:08.266Z,19.61
2022-09-01T19:37:13.483Z,19.47
2022-09-01T19:42:25.272Z,19.26
2022-09-01T19:47:36.498Z,19.21
2022-09-01T19:52:50.610Z,19.12
2022-09-01T19:57:57.691Z,19.05
2022-09-01T20:03:07.673Z,19.02
2022-09-01T20:08:24.579Z,18.97
2022-09-01T20:13:47.391Z,18.99
2022-09-01T20:18:53.785Z,18.99
2022-09-01T20:24:04.902Z,19.00
2022-09-01T20:29:15.333Z,18.93
2022-09-01T20:34:29.438Z,18.89
2022-09-01T20:39:57.935Z,18.83
2022-09-01T20:45:04.109Z,18.79
2022-09-01T20:50:13.287Z,18.70
2022-09-01T20:55:25.578Z,18.60
2022-09-01T21:00:30.407Z,18.56
2022-09-01T21:05:45.430Z,18.50
2022-09-01T21:10:58.045Z,18.37
2022-09-01T21:16:06.494Z,18.43
2022-09-01T21:21:18.210Z,18.46
2022-09-01T21:26:22.533Z,18.46
2022-09-01T21:31:25.886Z,18.46
2022-09-01T21:36:28.618Z,18.45
2022-09-01T21:41:32.852Z,18.43
2022-09-01T21:46:35.771Z,18.37
2022-09-01T21:51:38.523Z,18.35
2022-09-01T21:56:42.689Z,18.32
2022-09-01T22:01:45.942Z,18.27
2022-09-01T22:06:48.687Z,18.25
2022-09-01T22:11:52.830Z,18.22
2022-09-01T22:16:55.620Z,18.20
2022-09-01T22:21:58.340Z,18.15
2022-09-01T22:27:02.711Z,18.11
2022-09-01T22:32:05.687Z,18.07
2022-09-01T22:37:08.405Z,18.04
2022-09-01T22:42:12.559Z,17.97
2022-09-01T22:47:15.327Z,17.88
2022-09-01T22:52:18.184Z,17.82
2022-09-01T22:57:22.356Z,17.73
2022-09-01T23:02:25.156Z,17.63
2022-09-01T23:07:28.423Z,17.49
2022-09-01T23:12:32.491Z,17.42
2022-09-01T23:17:36.650Z,17.31
2022-09-01T23:22:39.921Z,17.25
2022-09-01T23:27:44.503Z,17.22
2022-09-01T23:32:47.211Z,17.14
2022-09-01T23:37:49.919Z,17.07
2022-09-01T23:42:54.083Z,17.02
2022-09-01T23:47:56.896Z,16.97
2022-09-01T23:52:59.592Z,16.93
2022-09-01T23:58:04.121Z,16.89
